Latest Weather Observations for Eildon Fire Tower

IDV60801

Issued at 4:12 pm EST Sunday 11 April 2021 (issued every 10 minutes, with the page automatically refreshed every 10 minutes)

About weather observations | Map of weather stations | Latest weather observations for VIC | Other Formats
Station Details ID: 088164 Name: EILDON FIRE TOWER Lat: -37.21 Lon: 145.84 Height: 637.0 m
Data from the previous 72 hours. | See also: Recent months at Eildon Fire Tower
Date/Time
EST
Temp
°C
App
Temp
°C
Dew
Point
°C
Rel
Hum
%
Delta-T
°C
Wind Press
QNH
hPa
Press
MSL
hPa
Rain since
9am
mm
Dir  Spd
km/h
Gust
km/h
Spd
kts
Gust
kts
11/04:00pm 6.1 -1.2 4.7 91 0.6 WSW 32 54 17 29 - - 1.2
11/03:30pm 6.2 0.5 4.8 91 0.6 WSW 24 32 13 17 - - 1.2
11/03:00pm 6.4 0.3 4.7 89 0.8 WSW 26 39 14 21 - - 1.0
11/02:42pm 6.0 -0.9 4.8 92 0.5 WSW 30 48 16 26 - - 1.0
11/02:30pm 5.9 0.9 4.5 91 0.6 WSW 20 32 11 17 - - 1.0
11/02:00pm 5.8 -0.3 4.6 92 0.5 WSW 26 44 14 24 - - 0.8
11/01:30pm 5.2 0.7 4.2 93 0.4 WSW 17 28 9 15 - - 0.8
11/01:00pm 5.0 -0.9 4.0 93 0.4 WSW 24 39 13 21 - - 0.6
11/12:30pm 5.4 0.3 3.9 90 0.7 WSW 20 30 11 16 - - 0.2
11/12:00pm 4.9 -1.0 4.0 94 0.4 WSW 24 33 13 18 - - 0.2
11/11:30am 4.9 -0.6 4.2 95 0.3 W 22 30 12 16 - - 0.2
11/11:00am 4.8 -1.1 3.9 94 0.4 WSW 24 41 13 22 - - 0.2
11/10:30am 4.2 -1.8 3.6 96 0.3 WSW 24 35 13 19 - - 0.2
11/10:00am 3.7 -2.3 3.1 96 0.3 WSW 24 41 13 22 - - 0.2
11/09:30am 3.5 -2.2 2.9 96 0.3 WSW 22 32 12 17 - - 0.0
11/09:00am 3.2 -2.5 2.6 96 0.2 WSW 22 30 12 16 - - 5.8
11/08:30am 2.7 -3.9 2.1 96 0.2 WSW 26 33 14 18 - - 5.8
11/08:00am 2.4 -2.9 1.8 96 0.2 WSW 19 28 10 15 - - 5.0
11/07:30am 2.3 -2.6 1.7 96 0.2 WSW 17 22 9 12 - - 4.8
11/07:00am 2.5 -3.0 1.8 95 0.3 WSW 20 30 11 16 - - 4.6
11/06:30am 2.8 -2.5 2.1 95 0.3 WSW 19 26 10 14 - - 4.4
11/06:00am 3.2 -2.2 2.3 94 0.4 WSW 20 30 11 16 - - 3.4
11/05:30am 3.4 -4.3 2.2 92 0.5 WSW 32 44 17 24 - - 3.0
11/05:00am 3.3 -4.4 2.3 93 0.4 WSW 32 41 17 22 - - 3.0
11/04:30am 3.5 -3.1 2.3 92 0.5 WSW 26 39 14 21 - - 3.0
11/04:00am 3.5 -2.7 2.3 92 0.5 W 24 33 13 18 - - 2.8
11/03:46am 3.4 -3.6 2.1 91 0.5 W 28 46 15 25 - - 2.8
11/03:30am 3.6 -4.3 2.1 90 0.6 WSW 33 44 18 24 - - 2.8
11/03:00am 3.6 -3.3 2.3 91 0.5 WSW 28 43 15 23 - - 2.8
11/02:30am 3.5 -3.8 2.5 93 0.4 W 30 46 16 25 - - 2.8
11/02:00am 3.1 -4.6 2.4 95 0.3 W 32 39 17 21 - - 2.8
11/01:30am 3.2 -5.1 2.3 94 0.4 W 35 44 19 24 - - 2.8
11/01:00am 3.1 -2.7 2.4 95 0.3 W 22 30 12 16 - - 2.8
11/12:30am 3.4 -2.7 2.7 95 0.3 W 24 32 13 17 - - 2.8
11/12:00am 3.3 -2.8 2.6 95 0.3 W 24 30 13 16 - - 2.8
 
Date/Time
EST
Temp
°C
App
Temp
°C
Dew
Point
°C
Rel
Hum
%
Delta-T
°C
Wind Press
QNH
hPa
Press
MSL
hPa
Rain since
9am
mm
Dir  Spd
km/h
Gust
km/h
Spd
kts
Gust
kts
10/11:30pm 3.3 -3.2 2.6 95 0.3 W 26 37 14 20 - - 2.8
10/11:00pm 3.9 -3.7 3.0 94 0.4 WSW 32 43 17 23 - - 2.2
10/10:30pm 4.3 -2.5 3.3 93 0.4 WSW 28 43 15 23 - - 2.0
10/10:00pm 4.5 -2.7 3.0 90 0.6 WSW 30 41 16 22 - - 1.6
10/09:37pm 5.2 -1.7 2.4 82 1.2 WSW 28 52 15 28 - - 1.2
10/09:30pm 5.6 -0.1 2.9 83 1.2 WSW 22 32 12 17 - - 1.2
10/09:00pm 6.4 1.3 3.0 79 1.5 SW 19 30 10 16 - - 1.0
10/08:30pm 6.8 1.3 4.1 83 1.2 WSW 22 33 12 18 - - 1.0
10/08:00pm 6.7 1.6 4.0 83 1.2 W 20 26 11 14 - - 0.8
10/07:30pm 6.5 -0.1 4.3 86 1.0 WSW 28 43 15 23 - - 0.8
10/07:10pm 7.4 0.8 4.0 79 1.5 WSW 28 54 15 29 - - 0.8
10/07:00pm 7.5 2.1 4.5 81 1.4 WSW 22 33 12 18 - - 0.8
10/06:30pm 7.6 0.8 4.9 83 1.2 WSW 30 44 16 24 - - 0.8
10/06:00pm 8.6 -0.1 4.0 73 2.1 WSW 39 65 21 35 - - 0.8
10/05:30pm 9.9 2.4 4.5 69 2.5 WSW 33 52 18 28 - - 0.8
10/05:20pm 10.4 3.8 4.1 65 2.9 WSW 28 48 15 26 - - 0.8
10/05:00pm 11.0 5.8 3.8 61 3.3 WSW 20 33 11 18 - - 0.8
10/04:52pm 11.3 4.6 3.8 60 3.5 WSW 28 46 15 25 - - 0.8
10/04:30pm 11.4 3.8 3.9 60 3.5 WSW 33 44 18 24 - - 0.8
10/04:19pm 11.0 4.3 3.8 61 3.3 WSW 28 48 15 26 - - 0.8
10/04:00pm 10.5 4.1 5.3 70 2.5 WSW 28 39 15 21 - - 0.8
10/03:37pm 11.3 4.2 6.6 73 2.3 WSW 33 52 18 28 - - 0.8
10/03:30pm 10.9 3.9 7.0 77 1.9 WSW 33 48 18 26 - - 0.8
10/03:20pm 10.3 4.4 7.4 82 1.4 WSW 28 48 15 26 - - 0.8
10/03:00pm 9.0 3.9 7.8 92 0.6 WSW 24 32 13 17 - - 0.8
10/02:30pm 8.7 1.6 7.9 95 0.4 WSW 35 48 19 26 - - 0.8
10/02:13pm 9.4 3.0 8.6 95 0.4 WSW 32 54 17 29 - - 0.6
10/02:00pm 9.7 4.5 8.8 94 0.5 WSW 26 37 14 20 - - 0.4
10/01:30pm 10.5 6.2 7.7 83 1.4 WSW 20 30 11 16 - - 0.0
10/01:00pm 10.6 6.4 7.3 80 1.6 W 19 32 10 17 - - 0.0
10/12:30pm 11.2 6.2 6.5 73 2.3 W 22 32 12 17 - - 0.0
10/12:00pm 11.4 7.9 8.6 83 1.4 W 17 26 9 14 - - 0.0
10/11:30am 9.0 5.3 7.9 93 0.5 W 17 22 9 12 - - 0.0
10/11:00am 8.8 5.5 7.9 94 0.4 W 15 24 8 13 - - 0.0
10/10:30am 8.6 4.8 7.5 93 0.5 W 17 28 9 15 - - 0.0
10/10:00am 8.3 4.7 6.6 89 0.8 W 15 20 8 11 - - 0.0
10/09:30am 8.3 4.0 5.2 81 1.4 W 17 28 9 15 - - 0.0
10/09:00am 8.5 4.9 4.9 78 1.7 W 13 17 7 9 - - 0.0
10/08:30am 8.2 3.2 4.8 79 1.6 W 20 26 11 14 - - 0.0
10/08:00am 8.0 4.0 4.9 81 1.4 W 15 19 8 10 - - 0.0
10/07:30am 7.5 3.5 4.8 83 1.2 W 15 17 8 9 - - 0.0
10/07:00am 7.4 3.8 4.9 84 1.1 W 13 19 7 10 - - 0.0
10/06:30am 7.3 2.9 5.0 85 1.1 W 17 20 9 11 - - 0.0
10/06:00am 7.6 2.8 4.7 82 1.3 W 19 26 10 14 - - 0.0
10/05:30am 7.6 2.6 4.6 81 1.4 WSW 20 30 11 16 - - 0.0
10/05:00am 7.7 2.7 4.5 80 1.5 W 20 24 11 13 - - 0.0
10/04:30am 7.6 2.8 4.4 80 1.4 WSW 19 24 10 13 - - 0.0
10/04:00am 8.0 2.5 4.0 76 1.8 WSW 22 32 12 17 - - 0.0
10/03:30am 8.1 3.0 3.9 75 1.9 WSW 20 26 11 14 - - 0.0
10/03:00am 8.3 3.2 3.9 74 2.0 WSW 20 26 11 14 - - 0.0
10/02:30am 8.2 3.1 4.0 75 1.9 WSW 20 30 11 16 - - 0.0
10/02:00am 8.2 2.4 4.6 78 1.6 WSW 24 33 13 18 - - 0.0
10/01:30am 8.0 4.0 4.8 80 1.5 WSW 15 20 8 11 - - 0.0
10/01:00am 8.0 3.2 4.6 79 1.6 WSW 19 24 10 13 - - 0.0
10/12:30am 7.6 3.3 5.2 85 1.1 WSW 17 22 9 12 - - 0.0
10/12:00am 8.1 3.7 4.9 80 1.5 SW 17 22 9 12 - - 0.0
 
Date/Time
EST
Temp
°C
App
Temp
°C
Dew
Point
°C
Rel
Hum
%
Delta-T
°C
Wind Press
QNH
hPa
Press
MSL
hPa
Rain since
9am
mm
Dir  Spd
km/h
Gust
km/h
Spd
kts
Gust
kts
09/11:30pm 8.3 5.6 5.6 83 1.3 WSW 9 13 5 7 - - 0.0
09/11:00pm 8.2 5.1 5.5 83 1.3 SW 11 15 6 8 - - 0.0
09/10:30pm 7.8 3.9 5.4 85 1.1 WSW 15 20 8 11 - - 0.0
09/10:00pm 8.4 4.5 5.5 82 1.4 WSW 15 22 8 12 - - 0.0
09/09:30pm 8.7 4.9 5.6 81 1.5 WSW 15 20 8 11 - - 0.0
09/09:00pm 8.7 5.1 5.1 78 1.7 WSW 13 17 7 9 - - 0.0
09/08:30pm 8.6 5.5 5.5 81 1.5 WSW 11 13 6 7 - - 0.0
09/08:00pm 8.7 5.3 5.8 82 1.4 WSW 13 19 7 10 - - 0.0
09/07:30pm 9.6 5.8 6.0 78 1.7 SW 15 20 8 11 - - 0.0
09/07:00pm 9.3 5.2 6.2 81 1.5 WSW 17 22 9 12 - - 0.0
09/06:30pm 9.6 4.9 6.1 79 1.7 WSW 20 28 11 15 - - 0.0
09/06:00pm 9.9 4.4 6.1 77 1.8 WSW 24 32 13 17 - - 0.0
09/05:30pm 10.9 6.3 6.3 73 2.2 WSW 20 28 11 15 - - 0.0
09/05:00pm 11.4 7.1 6.9 74 2.2 WSW 19 28 10 15 - - 0.0
09/04:30pm 11.1 7.5 6.8 75 2.1 W 15 26 8 14 - - 0.0
09/04:00pm 11.2 6.7 6.9 75 2.1 WSW 20 33 11 18 - - 0.0
09/03:30pm 11.7 7.3 6.6 71 2.5 WSW 19 33 10 18 - - 0.0
09/03:00pm 12.1 8.6 7.4 73 2.4 SW 15 26 8 14 - - 0.0
09/02:30pm 10.2 3.9 7.3 82 1.4 SW 30 44 16 24 - - 0.0
09/02:00pm 11.9 6.8 6.0 67 2.9 SW 22 30 12 16 - - 0.0
09/01:30pm 12.1 7.3 5.5 64 3.2 SW 20 35 11 19 - - 0.0
09/01:00pm 13.0 6.3 5.4 60 3.7 WSW 30 41 16 22 - - 0.0
09/12:30pm 13.7 8.8 5.1 56 4.2 WSW 20 35 11 19 - - 0.0
09/12:00pm 13.2 6.0 4.9 57 4.0 WSW 32 44 17 24 - - 0.0
09/11:30am 12.9 7.3 5.3 60 3.7 WSW 24 35 13 19 - - 0.0
09/11:00am 12.8 6.4 5.0 59 3.7 SW 28 44 15 24 - - 0.0
09/10:45am 12.7 6.2 4.9 59 3.7 SW 28 52 15 28 - - 0.0
09/10:30am 12.2 6.0 4.4 59 3.7 WSW 26 41 14 22 - - 0.0
09/10:00am 11.9 7.4 7.0 72 2.4 WSW 20 33 11 18 - - 0.0
09/09:30am 10.6 4.0 6.2 74 2.1 WSW 30 46 16 25 - - 0.0
09/09:01am 10.2 4.3 7.4 83 1.4 SW 28 46 15 25 - - 0.0
09/09:00am 10.2 3.9 7.6 84 1.3 SW 30 46 16 25 - - 2.2
09/08:30am 10.0 3.9 8.4 90 0.8 SW 30 43 16 23 - - 2.2
09/08:00am 10.4 5.3 9.2 92 0.6 WSW 26 39 14 21 - - 2.2
09/07:30am 11.0 6.7 9.3 89 0.9 WSW 22 32 12 17 - - 2.2
09/07:00am 10.8 4.0 9.2 90 0.8 WSW 35 46 19 25 - - 2.2
09/06:30am 11.1 3.4 10.2 94 0.5 WSW 41 57 22 31 - - 2.2
09/06:27am 11.1 3.8 10.3 95 0.4 WSW 39 57 21 31 - - 2.2
09/06:00am 12.1 8.0 11.5 96 0.3 WSW 24 35 13 19 - - 2.2
09/05:30am 12.2 9.8 11.4 95 0.4 W 15 19 8 10 - - 2.2
09/05:00am 12.3 10.3 11.5 95 0.4 WSW 13 17 7 9 - - 2.2
09/04:30am 12.3 10.7 11.4 94 0.5 WSW 11 15 6 8 - - 2.2
09/04:00am 12.7 11.0 11.1 90 0.9 W 11 19 6 10 - - 2.2
09/03:30am 13.3 8.1 10.3 82 1.6 WSW 28 37 15 20 - - 0.2
09/03:00am 14.4 9.4 9.4 72 2.7 SW 26 41 14 22 - - 0.0
09/02:30am 14.7 8.4 8.9 68 3.1 WSW 32 44 17 24 - - 0.0
09/02:00am 15.3 8.4 6.6 56 4.4 WSW 32 48 17 26 - - 0.0
09/01:46am 16.6 10.6 5.3 47 5.6 W 26 39 14 21 - - 0.0
09/01:30am 17.8 13.5 0.9 32 7.7 W 13 17 7 9 - - 0.0
09/01:00am 19.1 14.2 -0.3 27 8.8 NW 15 24 8 13 - - 0.0
09/12:30am 19.4 14.9 -0.6 26 9.0 NW 13 20 7 11 - - 0.0
09/12:00am 19.5 14.6 -0.5 26 9.0 NW 15 24 8 13 - - 0.0
 
Date/Time
EST
Temp
°C
App
Temp
°C
Dew
Point
°C
Rel
Hum
%
Delta-T
°C
Wind Press
QNH
hPa
Press
MSL
hPa
Rain since
9am
mm
Dir  Spd
km/h
Gust
km/h
Spd
kts
Gust
kts
08/11:30pm 19.4 14.9 -0.1 27 8.9 NW 13 20 7 11 - - 0.0
08/11:00pm 20.0 15.9 -0.1 26 9.2 WNW 11 19 6 10 - - 0.0
08/10:30pm 20.0 15.2 0.5 27 9.0 WNW 15 22 8 12 - - 0.0
08/10:00pm 19.6 15.7 1.1 29 8.6 NW 11 17 6 9 - - 0.0
08/09:30pm 19.9 15.7 1.4 29 8.7 W 13 19 7 10 - - 0.0
08/09:00pm 20.0 16.5 1.4 29 8.7 NW 9 13 5 7 - - 0.0
08/08:30pm 20.1 16.6 3.3 33 8.2 WNW 11 17 6 9 - - 0.0
08/08:00pm 20.4 16.5 3.6 33 8.3 WNW 13 19 7 10 - - 0.0
08/07:30pm 20.2 17.1 5.4 38 7.5 NW 11 17 6 9 - - 0.0
08/07:00pm 20.3 17.6 7.3 43 6.9 NW 11 19 6 10 - - 0.0
08/06:30pm 20.4 18.3 9.6 50 5.9 NW 11 20 6 11 - - 0.0
08/06:00pm 21.2 18.2 9.4 47 6.5 NNW 15 24 8 13 - - 0.0
08/05:30pm 21.7 19.4 8.9 44 7.0 NW 11 17 6 9 - - 0.0
08/05:00pm 22.6 19.0 8.3 40 7.8 NW 17 26 9 14 - - 0.0
08/04:30pm 23.4 20.4 7.9 37 8.4 NNW 13 22 7 12 - - 0.0

Other formats

Comma delimited format used in spreadsheet applications
http://www.bom.gov.au/fwo/IDV60801/IDV60801.94881.axf

JavaScript Object Notation format (JSON) in row-major order
http://www.bom.gov.au/fwo/IDV60801/IDV60801.94881.json

Data quality

Most of these data are generated automatically and are frequently updated. Quality checks on data are not normally performed. It is possible for incorrect values to appear. Refer to information at About Latest Weather Observations and please check the disclaimer before using these data.